Time;durP1;ratioP1;P1;durP2;ratioP2;P2;SDS_P1;SDS_P2;PMS_P1;PMS_P2;Temp;Humidity;BMP_temperature;BMP_pressure;BME280_temperature;BME280_humidity;BME280_pressure;Samples;Min_cycle;Max_cycle;Signal;HPM_P1;HPM_P2
2023/12/18 00:00:05;;;;;;;5.90;4.20;;;-0.20;75.10;;;;;;5072904;28;20466;-75
2023/12/18 00:02:31;;;;;;;12.43;6.07;;;-0.30;74.90;;;;;;5056329;28;20055;-71
2023/12/18 00:04:57;;;;;;;;;;;-0.20;74.50;;;;;;5056703;28;20048;-73
2023/12/18 00:07:23;;;;;;;6.95;4.15;;;-0.30;75.10;;;;;;5074164;28;20267;-71
2023/12/18 00:09:49;;;;;;;12.75;7.78;;;-0.30;75.20;;;;;;5073145;28;20057;-72
2023/12/18 00:12:15;;;;;;;6.95;4.03;;;-0.20;75.20;;;;;;5073675;28;20041;-75
2023/12/18 00:14:41;;;;;;;8.23;7.00;;;-0.30;75.20;;;;;;5074312;28;20040;-72
2023/12/18 00:17:07;;;;;;;5.60;3.80;;;-0.30;75.20;;;;;;5074339;28;20040;-72
2023/12/18 00:19:33;;;;;;;10.07;4.90;;;-0.30;75.10;;;;;;5072854;28;20025;-72
2023/12/18 00:22:00;;;;;;;5.38;2.63;;;-0.30;75.00;;;;;;5073638;28;20044;-75
2023/12/18 00:24:26;;;;;;;6.20;4.57;;;-0.30;75.00;;;;;;5072649;28;20036;-72
2023/12/18 00:26:52;;;;;;;5.93;4.00;;;-0.30;75.00;;;;;;5072603;28;20033;-73
2023/12/18 00:29:18;;;;;;;13.65;6.85;;;-0.30;74.90;;;;;;5055291;28;20078;-71
2023/12/18 00:31:45;;;;;;;6.88;4.78;;;-0.30;75.70;;;;;;5072046;28;20048;-72
2023/12/18 00:34:11;;;;;;;5.47;3.78;;;-0.30;74.70;;;;;;5072345;28;20047;-72
2023/12/18 00:36:37;;;;;;;7.43;4.07;;;-0.30;74.70;;;;;;5072097;28;20032;-75
2023/12/18 00:39:03;;;;;;;6.57;3.85;;;-0.30;74.70;;;;;;5073456;28;20040;-72
2023/12/18 00:41:29;;;;;;;8.23;5.25;;;-0.30;74.60;;;;;;5071948;28;20093;-74
2023/12/18 00:43:55;;;;;;;17.77;4.60;;;-0.30;74.70;;;;;;5073494;28;20044;-73
2023/12/18 00:46:21;;;;;;;6.80;3.97;;;-0.30;74.70;;;;;;5073277;28;20031;-72
2023/12/18 00:48:47;;;;;;;6.53;3.85;;;-0.20;74.70;;;;;;5072289;28;20037;-75
2023/12/18 00:51:13;;;;;;;12.60;5.75;;;-0.20;74.70;;;;;;5071570;28;20367;-75
2023/12/18 00:53:39;;;;;;;7.88;3.38;;;-0.30;74.80;;;;;;5073245;28;20094;-75
2023/12/18 00:56:05;;;;;;;3.67;2.65;;;-0.30;74.80;;;;;;5072888;28;20040;-75
2023/12/18 00:58:31;;;;;;;7.78;2.72;;;-0.20;74.10;;;;;;5073249;28;20040;-75
2023/12/18 01:00:58;;;;;;;9.45;4.85;;;-0.20;74.60;;;;;;5072608;28;20093;-72
2023/12/18 01:03:24;;;;;;;5.45;3.50;;;-0.20;74.70;;;;;;5073215;28;20048;-72
2023/12/18 01:05:50;;;;;;;5.55;3.83;;;-0.20;74.60;;;;;;5071702;28;20052;-75
2023/12/18 01:08:16;;;;;;;11.25;5.90;;;-0.20;74.50;;;;;;5073122;28;20052;-72
2023/12/18 01:10:42;;;;;;;8.38;4.28;;;-0.20;74.60;;;;;;5054521;28;20032;-75
2023/12/18 01:13:08;;;;;;;5.63;2.88;;;-0.30;74.70;;;;;;5071930;28;20489;-72
2023/12/18 01:15:34;;;;;;;9.65;3.35;;;-0.20;74.90;;;;;;5054493;28;20043;-75
2023/12/18 01:18:00;;;;;;;7.40;3.95;;;-0.20;74.80;;;;;;5071748;28;20024;-75
2023/12/18 01:20:26;;;;;;;12.18;4.30;;;-0.20;74.80;;;;;;5054249;28;20037;-72
2023/12/18 01:22:52;;;;;;;8.80;5.15;;;-0.30;74.90;;;;;;5071497;28;20172;-75
2023/12/18 01:25:18;;;;;;;15.30;5.78;;;-0.20;74.90;;;;;;5054686;28;20025;-75
2023/12/18 01:27:44;;;;;;;7.43;4.78;;;-0.30;74.80;;;;;;5072703;28;20043;-75
2023/12/18 01:30:11;;;;;;;10.52;6.28;;;-0.30;74.80;;;;;;5070639;28;20489;-75
2023/12/18 01:32:37;;;;;;;7.38;3.90;;;-0.20;74.60;;;;;;5072806;28;20028;-72
2023/12/18 01:35:04;;;;;;;10.10;4.53;;;-0.20;74.70;;;;;;5054630;28;20432;-75
2023/12/18 01:37:30;;;;;;;9.52;4.90;;;-0.30;74.60;;;;;;5071241;28;20127;-75
2023/12/18 01:39:57;;;;;;;5.70;4.10;;;-0.30;74.90;;;;;;5070734;28;20044;-74
2023/12/18 01:42:23;;;;;;;7.93;3.03;;;-0.30;75.00;;;;;;5070870;28;20067;-72
2023/12/18 01:44:50;;;;;;;11.00;5.40;;;-0.30;75.00;;;;;;5072067;28;20040;-72
2023/12/18 01:47:17;;;;;;;3.72;2.85;;;-0.30;75.00;;;;;;5054527;28;20160;-72
2023/12/18 01:49:44;;;;;;;5.68;3.92;;;-0.30;75.00;;;;;;5071179;28;20089;-75
2023/12/18 01:52:10;;;;;;;6.45;3.25;;;-0.40;75.00;;;;;;5072165;28;20039;-72
2023/12/18 01:54:37;;;;;;;7.07;4.55;;;-0.40;75.10;;;;;;5054128;28;20036;-74
2023/12/18 01:57:03;;;;;;;;;;;-0.40;75.20;;;;;;5072872;28;20034;-75
2023/12/18 01:59:32;;;;;;;4.93;3.00;;;-0.40;75.20;;;;;;5054494;28;20365;-72
2023/12/18 02:01:59;;;;;;;4.32;1.88;;;-0.50;75.20;;;;;;5070387;28;20033;-75
2023/12/18 02:04:25;;;;;;;10.27;4.72;;;-0.50;75.30;;;;;;5072226;28;20485;-71
2023/12/18 02:06:52;;;;;;;4.95;3.97;;;-0.50;75.30;;;;;;5070720;28;20028;-72
2023/12/18 02:09:18;;;;;;;3.75;2.95;;;-0.50;74.80;;;;;;5072450;28;20445;-72
2023/12/18 02:11:45;;;;;;;5.00;2.40;;;-0.50;75.40;;;;;;5070244;28;20402;-74
2023/12/18 02:14:12;;;;;;;4.63;2.03;;;-0.50;74.70;;;;;;5070726;28;20482;-75
2023/12/18 02:16:38;;;;;;;5.95;2.83;;;-0.50;75.20;;;;;;5070742;28;20056;-75
2023/12/18 02:19:04;;;;;;;8.45;3.78;;;-0.50;75.20;;;;;;5072236;28;20485;-71
2023/12/18 02:21:30;;;;;;;19.23;9.02;;;-0.60;75.20;;;;;;5053361;28;20107;-72
2023/12/18 02:23:56;;;;;;;12.20;7.78;;;-0.50;75.10;;;;;;5070771;28;20055;-75
2023/12/18 02:26:23;;;;;;;20.10;10.63;;;-0.60;75.10;;;;;;5070659;28;20029;-72
2023/12/18 02:28:49;;;;;;;20.83;10.45;;;-0.60;75.20;;;;;;5054102;28;20044;-72
2023/12/18 02:31:18;;;;;;;6.18;3.35;;;-0.70;75.20;;;;;;5070112;28;20036;-72
2023/12/18 02:33:48;;;;;;;5.80;3.55;;;-0.60;75.10;;;;;;5072070;28;20266;-71
2023/12/18 02:36:15;;;;;;;4.18;2.50;;;-0.60;75.20;;;;;;5054606;28;20036;-72
2023/12/18 02:38:41;;;;;;;18.17;6.07;;;-0.60;75.10;;;;;;5070535;28;20041;-75
2023/12/18 02:41:07;;;;;;;7.28;4.35;;;-0.60;75.00;;;;;;5070311;28;20037;-72
2023/12/18 02:43:33;;;;;;;24.67;6.18;;;-0.60;75.10;;;;;;5070584;28;20531;-72
2023/12/18 02:45:59;;;;;;;10.52;6.72;;;-0.60;75.00;;;;;;5070446;28;20033;-75
2023/12/18 02:48:25;;;;;;;;;;;-0.60;75.80;;;;;;5072464;28;20037;-75
2023/12/18 02:50:51;;;;;;;8.70;5.30;;;-0.60;74.90;;;;;;5053410;28;20000;-72
2023/12/18 02:53:17;;;;;;;11.00;7.57;;;-0.70;74.90;;;;;;5075755;28;20049;-75
2023/12/18 02:55:44;;;;;;;9.65;6.72;;;-0.70;75.10;;;;;;5057338;28;20542;-72
2023/12/18 02:58:10;;;;;;;;;;;-0.70;74.60;;;;;;5076092;28;20036;-74
2023/12/18 03:00:36;;;;;;;8.93;5.63;;;-0.70;75.40;;;;;;5073528;28;19917;-75
2023/12/18 03:03:02;;;;;;;;;;;-0.70;75.30;;;;;;5075012;28;20493;-75
2023/12/18 03:05:28;;;;;;;6.35;4.68;;;-0.70;75.20;;;;;;5073745;28;19920;-73
2023/12/18 03:07:54;;;;;;;14.13;8.55;;;-0.70;75.00;;;;;;5057459;28;20039;-75
2023/12/18 03:10:20;;;;;;;6.97;4.32;;;-0.70;74.90;;;;;;5073397;28;20036;-72
2023/12/18 03:12:46;;;;;;;11.52;5.15;;;-0.70;74.90;;;;;;5074124;28;20028;-75
2023/12/18 03:15:12;;;;;;;12.93;6.85;;;-0.70;74.90;;;;;;5075086;28;20033;-75
2023/12/18 03:17:38;;;;;;;16.85;7.03;;;-0.70;75.00;;;;;;5057236;28;20075;-75
2023/12/18 03:20:06;;;;;;;15.48;6.75;;;-0.70;74.90;;;;;;5075149;28;20040;-75
2023/12/18 03:22:32;;;;;;;15.63;7.63;;;-0.80;74.60;;;;;;5074982;28;20029;-72
2023/12/18 03:24:58;;;;;;;9.55;6.57;;;-0.80;74.70;;;;;;5075294;28;20043;-72
2023/12/18 03:27:24;;;;;;;12.93;8.10;;;-0.80;74.70;;;;;;5075112;28;20071;-73
2023/12/18 03:29:50;;;;;;;9.85;7.10;;;-0.80;74.60;;;;;;5073869;28;20390;-72
2023/12/18 03:32:16;;;;;;;11.93;5.75;;;-0.80;74.80;;;;;;5073154;28;20074;-72
2023/12/18 03:34:42;;;;;;;11.98;4.90;;;-0.80;74.90;;;;;;5073563;28;20028;-75
2023/12/18 03:37:08;;;;;;;9.00;5.43;;;-0.80;74.90;;;;;;5073636;28;20128;-75
2023/12/18 03:39:34;;;;;;;5.47;4.40;;;-0.80;74.80;;;;;;5075015;28;20060;-75
2023/12/18 03:42:00;;;;;;;10.18;3.65;;;-0.80;74.60;;;;;;5072912;28;20040;-75
2023/12/18 03:44:26;;;;;;;14.48;3.42;;;-0.80;74.60;;;;;;5073546;28;20025;-73
2023/12/18 03:46:52;;;;;;;9.38;4.00;;;-0.80;74.60;;;;;;5074601;28;20119;-74
2023/12/18 03:49:18;;;;;;;7.43;5.32;;;-0.80;74.70;;;;;;5074858;28;20091;-72
2023/12/18 03:51:44;;;;;;;6.68;4.90;;;-0.80;74.60;;;;;;5072664;28;20083;-75
2023/12/18 03:54:10;;;;;;;5.75;2.83;;;-0.80;74.60;;;;;;5073303;28;20062;-73
2023/12/18 03:56:36;;;;;;;16.38;7.38;;;-0.80;74.60;;;;;;5074152;28;20044;-72
2023/12/18 03:59:02;;;;;;;17.55;5.78;;;-0.80;74.70;;;;;;5073214;28;20048;-75
2023/12/18 04:01:47;;;;;;;6.85;3.33;;;-0.80;74.70;;;;;;5072408;28;20051;-72
2023/12/18 04:04:13;;;;;;;7.75;5.30;;;-0.80;74.80;;;;;;5071869;28;20032;-72
2023/12/18 04:06:43;;;;;;;5.90;4.10;;;-0.70;74.90;;;;;;5074154;28;20464;-72
2023/12/18 04:09:10;;;;;;;4.97;3.47;;;-0.80;74.70;;;;;;5073210;28;20036;-72
2023/12/18 04:11:36;;;;;;;11.32;5.88;;;-0.80;74.70;;;;;;5055749;28;20040;-72
2023/12/18 04:14:02;;;;;;;11.25;4.80;;;-0.70;75.10;;;;;;5072780;28;20516;-75
2023/12/18 04:16:28;;;;;;;;;;;-0.80;75.00;;;;;;5073227;28;20037;-73
2023/12/18 04:18:54;;;;;;;8.20;4.93;;;-0.70;75.50;;;;;;5072872;28;20390;-76
2023/12/18 04:21:20;;;;;;;16.75;8.95;;;-0.80;75.50;;;;;;5072362;28;20112;-75
2023/12/18 04:23:46;;;;;;;9.45;6.50;;;-0.80;75.90;;;;;;5072813;28;20048;-75
2023/12/18 04:26:12;;;;;;;5.35;3.83;;;-0.80;76.10;;;;;;5073641;28;20107;-75
2023/12/18 04:28:38;;;;;;;11.68;4.90;;;-0.90;76.30;;;;;;5073878;28;20037;-75
2023/12/18 04:31:04;;;;;;;13.90;6.82;;;-0.80;76.30;;;;;;5071923;28;20041;-72
2023/12/18 04:33:30;;;;;;;17.05;7.47;;;-0.80;76.20;;;;;;5073725;28;20040;-72
2023/12/18 04:35:58;;;;;;;11.68;6.47;;;-0.80;76.20;;;;;;5072337;28;20037;-72
2023/12/18 04:38:24;;;;;;;5.80;4.75;;;-0.80;75.90;;;;;;5072535;28;20068;-75
2023/12/18 04:40:51;;;;;;;12.50;4.78;;;-0.80;76.90;;;;;;5071676;28;20040;-72
2023/12/18 04:43:17;;;;;;;12.10;7.82;;;-0.80;76.00;;;;;;5073459;28;20052;-72
2023/12/18 04:45:43;;;;;;;9.95;4.30;;;-0.80;76.00;;;;;;5072130;28;20043;-75
2023/12/18 04:48:09;;;;;;;12.85;6.22;;;-0.80;76.00;;;;;;5072324;28;20040;-75
2023/12/18 04:50:35;;;;;;;8.27;3.08;;;-0.80;76.00;;;;;;5071540;28;20044;-73
2023/12/18 04:53:01;;;;;;;10.93;5.40;;;-0.80;76.00;;;;;;5072293;28;20428;-74
2023/12/18 04:55:27;;;;;;;4.07;3.15;;;-0.80;76.10;;;;;;5071852;28;20094;-71
2023/12/18 04:57:53;;;;;;;4.68;3.35;;;-0.80;76.20;;;;;;5055397;28;20075;-75
2023/12/18 05:00:19;;;;;;;8.18;4.63;;;-0.80;76.20;;;;;;5072458;28;20025;-75
2023/12/18 05:02:45;;;;;;;5.10;4.40;;;-0.90;76.30;;;;;;5072315;28;20043;-72
2023/12/18 05:05:11;;;;;;;4.50;3.55;;;-0.80;76.30;;;;;;5072914;28;20469;-75
2023/12/18 05:07:37;;;;;;;6.35;3.97;;;-0.90;76.30;;;;;;5071774;28;20062;-73
2023/12/18 05:10:03;;;;;;;8.48;5.32;;;-0.90;76.30;;;;;;5071333;28;20037;-75
2023/12/18 05:12:29;;;;;;;9.55;5.57;;;-0.90;75.60;;;;;;5071893;28;20025;-72
2023/12/18 05:14:55;;;;;;;5.55;3.03;;;-0.90;76.20;;;;;;5072116;28;20444;-76
2023/12/18 05:17:21;;;;;;;4.07;2.92;;;-0.90;76.30;;;;;;5072743;28;20060;-73
2023/12/18 05:19:47;;;;;;;9.95;6.82;;;-0.90;76.10;;;;;;5071531;28;20047;-75
2023/12/18 05:22:13;;;;;;;14.90;8.07;;;-1.00;76.00;;;;;;5071119;28;20501;-72
2023/12/18 05:24:39;;;;;;;9.82;7.40;;;-1.00;76.00;;;;;;5054838;28;20051;-72
2023/12/18 05:27:05;;;;;;;8.45;5.10;;;-1.00;76.10;;;;;;5071470;28;20037;-75
2023/12/18 05:29:31;;;;;;;10.50;5.78;;;-1.00;76.10;;;;;;5071695;28;20044;-72
2023/12/18 05:31:57;;;;;;;7.93;6.50;;;-1.00;76.00;;;;;;5054174;28;20032;-75
2023/12/18 05:34:23;;;;;;;13.95;7.32;;;-1.00;76.10;;;;;;5072458;28;20037;-76
2023/12/18 05:36:49;;;;;;;9.40;5.68;;;-1.00;76.10;;;;;;5071224;28;20454;-75
2023/12/18 05:39:15;;;;;;;15.02;7.43;;;-1.00;76.10;;;;;;5072838;28;20041;-75
2023/12/18 05:41:41;;;;;;;9.77;8.20;;;-1.00;75.90;;;;;;5070704;28;20067;-76
2023/12/18 05:44:07;;;;;;;16.98;6.85;;;-1.10;75.80;;;;;;5071240;28;20059;-75
2023/12/18 05:46:33;;;;;;;22.70;8.90;;;-1.10;75.80;;;;;;5071011;28;20033;-74
2023/12/18 05:48:59;;;;;;;14.45;10.30;;;-1.10;75.90;;;;;;5071270;28;20039;-73
2023/12/18 05:51:25;;;;;;;10.43;7.38;;;-1.10;75.90;;;;;;5071822;28;20075;-75
2023/12/18 05:53:51;;;;;;;7.82;6.82;;;-1.10;75.80;;;;;;5071251;28;20028;-72
2023/12/18 05:56:17;;;;;;;20.90;8.75;;;-1.20;75.60;;;;;;5071968;28;20117;-75
2023/12/18 05:58:44;;;;;;;19.58;8.55;;;-1.20;75.50;;;;;;5071071;28;20029;-75
2023/12/18 06:01:10;;;;;;;;;;;-1.10;75.60;;;;;;5054069;28;20060;-72
2023/12/18 06:03:36;;;;;;;11.70;4.90;;;-1.20;75.40;;;;;;5072083;28;20408;-75
2023/12/18 06:06:02;;;;;;;8.77;5.30;;;-1.20;75.50;;;;;;5071878;28;20041;-75
2023/12/18 06:08:28;;;;;;;9.07;5.35;;;-1.20;75.40;;;;;;5066053;28;20033;-76
2023/12/18 06:10:54;;;;;;;14.07;5.70;;;-1.20;75.50;;;;;;5071245;28;20025;-76
2023/12/18 06:13:20;;;;;;;18.98;8.20;;;-1.20;75.50;;;;;;5072324;28;20390;-75
2023/12/18 06:15:46;;;;;;;11.13;4.63;;;-1.30;76.30;;;;;;5071897;28;20024;-73
2023/12/18 06:18:12;;;;;;;24.38;9.60;;;-1.30;75.50;;;;;;5072075;28;20051;-75
2023/12/18 06:20:38;;;;;;;7.45;5.38;;;-1.30;75.40;;;;;;5070259;28;20028;-72
2023/12/18 06:23:04;;;;;;;10.68;5.35;;;-1.30;75.40;;;;;;5070706;28;20044;-72
2023/12/18 06:25:30;;;;;;;9.82;7.63;;;-1.30;75.50;;;;;;5071803;28;20086;-75
2023/12/18 06:27:56;;;;;;;11.35;6.15;;;-1.20;75.40;;;;;;5074614;28;20029;-72
2023/12/18 06:30:22;;;;;;;9.55;7.47;;;-1.30;75.50;;;;;;5074078;28;20486;-72
2023/12/18 06:32:48;;;;;;;13.48;6.43;;;-1.30;75.40;;;;;;5076239;28;20032;-72
2023/12/18 06:35:14;;;;;;;10.38;5.93;;;-1.30;75.40;;;;;;5074669;28;20048;-75
2023/12/18 06:37:42;;;;;;;9.25;5.68;;;-1.30;75.20;;;;;;5076067;28;20443;-75
2023/12/18 06:40:09;;;;;;;10.55;4.75;;;-1.30;75.00;;;;;;5074222;28;20048;-73
2023/12/18 06:42:35;;;;;;;12.30;6.32;;;-1.40;74.10;;;;;;5074737;28;20024;-75
2023/12/18 06:45:01;;;;;;;10.88;5.13;;;-1.40;74.90;;;;;;5075957;28;20032;-72
2023/12/18 06:47:28;;;;;;;11.50;3.90;;;-1.40;74.90;;;;;;5074692;28;20039;-72
2023/12/18 06:49:54;;;;;;;8.02;4.88;;;-1.30;75.00;;;;;;5074586;28;20033;-75
2023/12/18 06:52:20;;;;;;;14.30;8.20;;;-1.30;74.90;;;;;;5073827;28;20036;-75
2023/12/18 06:54:46;;;;;;;8.15;5.57;;;-1.30;74.80;;;;;;5075808;28;20062;-74
2023/12/18 06:57:12;;;;;;;10.85;6.43;;;-1.20;74.70;;;;;;5074247;28;20040;-73
2023/12/18 06:59:38;;;;;;;;;;;-1.20;74.60;;;;;;5058327;28;20024;-75
2023/12/18 07:02:05;;;;;;;10.65;7.10;;;-1.20;74.20;;;;;;5074875;28;19924;-76
2023/12/18 07:04:31;;;;;;;9.95;5.97;;;-1.10;74.20;;;;;;5074002;28;20139;-75
2023/12/18 07:06:57;;;;;;;9.90;6.40;;;-1.10;74.20;;;;;;5075279;28;20036;-75
2023/12/18 07:09:24;;;;;;;18.33;8.60;;;-1.00;74.10;;;;;;5075576;28;20098;-72
2023/12/18 07:11:50;;;;;;;12.77;5.57;;;-1.00;74.00;;;;;;5056912;28;20478;-72
2023/12/18 07:14:17;;;;;;;;;;;-0.90;73.90;;;;;;5074582;28;20048;-73
2023/12/18 07:16:44;;;;;;;16.65;5.15;;;-0.80;73.70;;;;;;5074148;28;20277;-75
2023/12/18 07:19:10;;;;;;;;;;;-0.80;73.50;;;;;;5074487;28;20052;-73
2023/12/18 07:21:36;;;;;;;15.05;5.78;;;-0.70;73.50;;;;;;5073454;28;19916;-72
2023/12/18 07:24:02;;;;;;;10.82;5.95;;;-0.70;73.30;;;;;;5075149;28;20040;-75
2023/12/18 07:26:28;;;;;;;7.10;2.92;;;-0.60;73.30;;;;;;5075214;28;20393;-73
2023/12/18 07:28:54;;;;;;;9.60;4.70;;;-0.50;73.30;;;;;;5056869;28;20198;-75
2023/12/18 07:31:20;;;;;;;9.45;3.22;;;-0.50;73.30;;;;;;5073171;28;20040;-72
2023/12/18 07:33:46;;;;;;;4.43;4.03;;;-0.40;73.20;;;;;;5074982;28;20111;-75
2023/12/18 07:36:13;;;;;;;4.45;3.65;;;-0.40;73.10;;;;;;5073338;28;20036;-75
2023/12/18 07:38:39;;;;;;;10.98;4.53;;;-0.40;73.00;;;;;;5073814;28;20444;-75
2023/12/18 07:41:05;;;;;;;8.38;5.13;;;-0.30;73.10;;;;;;5056300;28;20040;-74
2023/12/18 07:43:31;;;;;;;16.40;9.20;;;-0.20;73.10;;;;;;5074876;28;20043;-75
2023/12/18 07:45:57;;;;;;;;;;;-0.20;73.00;;;;;;5075180;28;20036;-72
2023/12/18 07:48:25;;;;;;;10.02;5.65;;;-0.10;73.10;;;;;;5074866;28;19920;-73
2023/12/18 07:50:51;;;;;;;7.28;3.95;;;-0.10;72.80;;;;;;5072937;28;20103;-75
2023/12/18 07:53:18;;;;;;;11.07;4.97;;;0.00;72.90;;;;;;5073353;28;20040;-72
2023/12/18 07:55:44;;;;;;;8.38;6.05;;;0.10;72.90;;;;;;5073105;28;20035;-73
2023/12/18 07:58:10;;;;;;;7.38;4.55;;;0.20;72.70;;;;;;5074626;28;20067;-73
2023/12/18 08:00:36;;;;;;;6.15;3.88;;;0.40;72.70;;;;;;5074024;28;20029;-75
2023/12/18 08:03:03;;;;;;;8.68;6.03;;;0.40;72.70;;;;;;5074428;28;20028;-72
2023/12/18 08:05:29;;;;;;;8.98;5.32;;;0.40;72.40;;;;;;5072820;28;20048;-72
2023/12/18 08:07:56;;;;;;;17.83;7.93;;;0.50;72.60;;;;;;5073210;28;20060;-75
2023/12/18 08:10:22;;;;;;;10.23;5.70;;;0.50;72.30;;;;;;5072345;28;20032;-75
2023/12/18 08:13:07;;;;;;;12.52;7.72;;;0.60;72.50;;;;;;5056442;28;20033;-72
2023/12/18 08:15:33;;;;;;;19.95;10.88;;;0.60;72.60;;;;;;5072539;28;20087;-75
2023/12/18 08:17:59;;;;;;;19.80;11.77;;;0.70;72.50;;;;;;5074106;28;20501;-75
2023/12/18 08:20:25;;;;;;;20.67;10.75;;;0.80;72.50;;;;;;5054894;28;20040;-75
2023/12/18 08:22:51;;;;;;;13.90;8.65;;;0.80;72.60;;;;;;5056389;28;20115;-75
2023/12/18 08:25:18;;;;;;;;;;;0.80;72.90;;;;;;5073103;28;20039;-75
2023/12/18 08:27:44;;;;;;;13.88;8.75;;;0.90;72.70;;;;;;5074183;28;19947;-73
2023/12/18 08:30:11;;;;;;;14.50;10.30;;;1.00;72.90;;;;;;5073065;28;20037;-73
2023/12/18 08:32:38;;;;;;;11.77;6.93;;;1.00;72.80;;;;;;5072738;28;20033;-75
2023/12/18 08:35:06;;;;;;;15.75;8.50;;;1.10;73.10;;;;;;5055870;28;20048;-72
2023/12/18 08:37:32;;;;;;;16.90;10.05;;;1.20;73.00;;;;;;5072532;28;20035;-73
2023/12/18 08:39:59;;;;;;;13.30;7.35;;;1.30;73.40;;;;;;5074113;28;20045;-73
2023/12/18 08:42:25;;;;;;;11.27;8.50;;;1.40;73.30;;;;;;5071803;28;20178;-73
2023/12/18 08:44:51;;;;;;;19.33;11.02;;;1.40;73.20;;;;;;5072290;28;20040;-72
2023/12/18 08:47:17;;;;;;;16.40;7.80;;;1.50;73.30;;;;;;5073447;28;20043;-73
2023/12/18 08:49:43;;;;;;;;;;;1.60;73.00;;;;;;5072703;28;20490;-73
2023/12/18 08:52:09;;;;;;;14.70;8.32;;;1.70;73.00;;;;;;5073134;28;19923;-75
2023/12/18 08:54:35;;;;;;;18.23;11.23;;;1.80;72.80;;;;;;5072079;28;20051;-72
2023/12/18 08:57:01;;;;;;;24.42;11.20;;;2.00;73.30;;;;;;5055473;28;20482;-75
2023/12/18 08:59:27;;;;;;;14.52;9.23;;;2.10;73.20;;;;;;5073657;28;20045;-72
2023/12/18 09:01:53;;;;;;;10.80;6.43;;;2.80;71.90;;;;;;5071644;28;20082;-72
2023/12/18 09:04:20;;;;;;;11.20;7.03;;;4.30;68.50;;;;;;5054977;28;20363;-72
2023/12/18 09:06:46;;;;;;;18.48;9.93;;;6.00;62.70;;;;;;5072007;28;20033;-72
2023/12/18 09:09:12;;;;;;;12.88;7.18;;;6.30;61.20;;;;;;5073379;28;20099;-75
2023/12/18 09:11:38;;;;;;;7.72;6.00;;;6.30;61.70;;;;;;5071422;28;20214;-75
2023/12/18 09:14:05;;;;;;;7.63;5.60;;;7.00;59.60;;;;;;5071491;28;20286;-75
2023/12/18 09:16:31;;;;;;;12.68;8.57;;;7.20;59.20;;;;;;5072705;28;20456;-72
2023/12/18 09:18:57;;;;;;;13.93;7.07;;;7.70;57.90;;;;;;5071820;28;20032;-73
2023/12/18 09:21:23;;;;;;;;;;;8.60;55.90;;;;;;5054874;28;20035;-75
2023/12/18 09:23:49;;;;;;;11.07;4.93;;;8.50;56.70;;;;;;5072993;28;19920;-72
2023/12/18 09:26:15;;;;;;;;;;;8.40;56.10;;;;;;5072005;28;20367;-74
2023/12/18 09:28:43;;;;;;;6.85;5.28;;;7.60;57.40;;;;;;5072844;28;20186;-72
2023/12/18 09:31:09;;;;;;;8.27;5.55;;;7.60;58.60;;;;;;5070843;28;20142;-75
2023/12/18 09:33:35;;;;;;;5.50;3.58;;;8.10;57.60;;;;;;5071387;28;20032;-74
2023/12/18 09:36:01;;;;;;;9.73;4.13;;;8.20;57.40;;;;;;5071251;28;20037;-72
2023/12/18 09:38:27;;;;;;;;;;;8.10;57.70;;;;;;5055198;28;20028;-72
2023/12/18 09:40:53;;;;;;;3.45;1.88;;;8.50;56.80;;;;;;5071938;28;19950;-72
2023/12/18 09:43:33;;;;;;;7.93;5.80;;;9.20;55.30;;;;;;5072918;28;20082;-74
2023/12/18 09:45:59;;;;;;;2.97;1.92;;;9.80;53.40;;;;;;5071043;28;20328;-72
2023/12/18 09:48:25;;;;;;;5.07;2.03;;;9.90;53.50;;;;;;5072413;28;20062;-74
2023/12/18 09:50:51;;;;;;;4.15;2.20;;;9.50;54.10;;;;;;5053808;28;20036;-72
2023/12/18 09:53:20;;;;;;;3.70;2.97;;;9.50;54.80;;;;;;5071239;28;20059;-74
2023/12/18 09:58:33;;;;;;;21.10;7.50;;;10.10;52.50;;;;;;5071275;28;20101;-75
2023/12/18 10:00:59;;;;;;;4.10;3.20;;;9.80;52.70;;;;;;5069801;28;20440;-73
2023/12/18 10:03:25;;;;;;;3.38;2.83;;;10.10;53.00;;;;;;5071111;28;20086;-72
2023/12/18 10:05:51;;;;;;;4.13;2.88;;;11.10;51.60;;;;;;5071954;28;20498;-74
2023/12/18 10:08:17;;;;;;;5.88;3.67;;;11.70;50.00;;;;;;5070945;28;20064;-72
2023/12/18 10:10:44;;;;;;;6.47;3.50;;;12.00;48.40;;;;;;5053600;28;20029;-73
2023/12/18 10:13:29;;;;;;;;;;;11.30;49.30;;;;;;5071645;28;20032;-72
2023/12/18 10:15:55;;;;;;;4.05;2.45;;;12.30;46.70;;;;;;5070568;28;20332;-72
2023/12/18 10:18:40;;;;;;;;;;;13.10;44.70;;;;;;5071347;28;20048;-73
2023/12/18 10:21:06;;;;;;;6.45;3.28;;;12.80;44.80;;;;;;5070291;28;19964;-74
2023/12/18 10:23:35;;;;;;;11.57;2.45;;;12.60;46.70;;;;;;5072032;28;20037;-74
2023/12/18 10:26:20;;;;;;;4.20;3.50;;;12.80;46.90;;;;;;5070623;28;20037;-73
2023/12/18 10:28:55;;;;;;;4.80;2.38;;;12.80;44.50;;;;;;5072245;28;20040;-74
2023/12/18 10:31:21;;;;;;;1.60;1.10;;;12.30;47.00;;;;;;5070199;28;20090;-74
2023/12/18 10:33:47;;;;;;;2.58;1.65;;;12.40;47.70;;;;;;5072214;28;20072;-73
2023/12/18 10:36:16;;;;;;;4.35;1.88;;;11.90;48.50;;;;;;5070389;28;20032;-72
2023/12/18 10:38:49;;;;;;;1.45;1.35;;;12.30;46.50;;;;;;5070852;28;20385;-72
2023/12/18 10:41:22;;;;;;;2.28;1.42;;;12.60;45.40;;;;;;5070275;28;20071;-72
2023/12/18 10:43:49;;;;;;;4.95;2.15;;;12.70;46.30;;;;;;5070459;28;20094;-75
2023/12/18 10:46:16;;;;;;;2.95;0.93;;;13.00;44.80;;;;;;5053542;28;20035;-72
2023/12/18 10:48:43;;;;;;;4.55;2.65;;;12.70;45.30;;;;;;5071936;28;20444;-72
2023/12/18 10:51:10;;;;;;;3.38;2.45;;;12.60;46.40;;;;;;5069930;28;20401;-72
2023/12/18 10:53:38;;;;;;;2.53;2.08;;;14.20;42.80;;;;;;5053827;28;20097;-74
2023/12/18 10:56:07;;;;;;;1.80;1.05;;;14.60;41.60;;;;;;5071518;28;20478;-72
2023/12/18 10:58:35;;;;;;;8.00;2.75;;;14.60;41.50;;;;;;5053730;28;20397;-74
2023/12/18 11:01:07;;;;;;;6.15;1.95;;;14.60;41.30;;;;;;5069775;28;20028;-72
2023/12/18 11:03:36;;;;;;;2.97;2.25;;;16.10;38.80;;;;;;5072043;28;20123;-74
2023/12/18 11:06:03;;;;;;;4.43;2.10;;;17.90;34.90;;;;;;5070139;28;20106;-74
2023/12/18 11:08:29;;;;;;;2.70;1.20;;;18.30;32.60;;;;;;5070236;28;20036;-74
2023/12/18 11:11:00;;;;;;;4.65;2.97;;;17.90;33.40;;;;;;5071157;28;20639;-74
2023/12/18 11:13:29;;;;;;;3.40;2.05;;;16.50;35.30;;;;;;5073027;28;20493;-73
2023/12/18 11:16:38;;;;;;;1.40;0.60;;;16.10;36.60;;;;;;5057013;28;20525;-73
2023/12/18 11:19:41;;;;;;;2.13;1.38;;;16.20;35.80;;;;;;5075439;28;20043;-74
2023/12/18 11:22:08;;;;;;;2.92;1.20;;;15.80;35.60;;;;;;5074645;28;20043;-72
2023/12/18 11:24:54;;;;;;;2.28;2.05;;;15.20;37.10;;;;;;5074051;28;20039;-72
2023/12/18 11:27:20;;;;;;;5.43;1.50;;;14.90;38.50;;;;;;5075059;28;20460;-72
2023/12/18 11:30:05;;;;;;;4.72;1.88;;;16.10;36.90;;;;;;5073901;28;20064;-74
2023/12/18 11:32:51;;;;;;;1.52;1.17;;;16.90;33.90;;;;;;5073271;28;20066;-74
2023/12/18 11:35:29;;;;;;;2.83;1.17;;;16.10;34.90;;;;;;5073647;28;20458;-72
2023/12/18 11:38:33;;;;;;;2.83;1.60;;;15.10;37.70;;;;;;5057560;28;20105;-72
2023/12/18 11:41:00;;;;;;;1.45;0.90;;;14.30;38.90;;;;;;5056664;28;20044;-71
2023/12/18 11:43:46;;;;;;;1.05;0.88;;;14.60;39.40;;;;;;5074897;28;20139;-73
2023/12/18 11:46:14;;;;;;;1.20;0.65;;;15.80;36.10;;;;;;5073204;28;20486;-74
2023/12/18 11:48:41;;;;;;;0.85;0.55;;;15.00;36.80;;;;;;5074836;28;20078;-74
2023/12/18 11:51:07;;;;;;;1.70;1.08;;;14.30;38.70;;;;;;5074023;28;20090;-72
2023/12/18 11:53:35;;;;;;;0.95;0.65;;;14.10;39.70;;;;;;5074555;28;20032;-74
2023/12/18 11:56:20;;;;;;;2.28;1.77;;;15.50;37.60;;;;;;5073090;28;20041;-74
2023/12/18 11:58:47;;;;;;;1.13;0.75;;;18.70;32.70;;;;;;5074494;28;20421;-74
2023/12/18 12:01:14;;;;;;;1.98;1.75;;;19.70;29.40;;;;;;5074054;28;20029;-73
2023/12/18 12:03:40;;;;;;;;;;;19.00;29.60;;;;;;5073855;28;20067;-72
2023/12/18 12:06:08;;;;;;;2.08;1.15;;;17.90;31.00;;;;;;5056187;28;19924;-74
2023/12/18 12:08:43;;;;;;;3.92;2.28;;;17.00;32.60;;;;;;5073119;28;20029;-74
2023/12/18 12:11:09;;;;;;;1.95;1.45;;;16.50;34.20;;;;;;5072590;28;20044;-73
2023/12/18 12:13:35;;;;;;;;;;;15.80;35.60;;;;;;5073594;28;20037;-72
2023/12/18 12:16:03;;;;;;;1.80;1.45;;;14.90;37.00;;;;;;5072697;28;19958;-72
2023/12/18 12:21:35;;;;;;;3.33;1.42;;;13.90;39.40;;;;;;5072533;28;20128;-73
2023/12/18 12:24:02;;;;;;;1.58;1.13;;;13.50;40.20;;;;;;5055461;28;20127;-72
2023/12/18 12:26:28;;;;;;;1.00;0.82;;;13.30;40.90;;;;;;5072547;28;20029;-74
2023/12/18 12:28:54;;;;;;;2.60;1.85;;;13.10;41.40;;;;;;5072831;28;20489;-72
2023/12/18 12:31:20;;;;;;;2.55;1.05;;;13.00;41.70;;;;;;5072144;28;20055;-74
2023/12/18 12:33:48;;;;;;;1.55;0.80;;;13.10;42.20;;;;;;5072464;28;20035;-73
2023/12/18 12:36:34;;;;;;;5.63;2.47;;;13.20;42.10;;;;;;5055866;28;20090;-72
2023/12/18 12:39:00;;;;;;;7.00;3.42;;;14.00;39.60;;;;;;5073925;28;20036;-74
2023/12/18 12:41:27;;;;;;;4.47;1.77;;;14.10;39.80;;;;;;5071915;28;20036;-72
2023/12/18 12:43:56;;;;;;;1.85;1.25;;;13.90;38.50;;;;;;5055636;28;20043;-74
2023/12/18 12:46:22;;;;;;;2.45;1.05;;;14.10;38.70;;;;;;5056161;28;20079;-72
2023/12/18 12:48:49;;;;;;;0.68;0.55;;;14.20;39.10;;;;;;5055668;28;20025;-72
2023/12/18 12:51:15;;;;;;;27.38;1.60;;;14.40;38.90;;;;;;5054687;28;20036;-72
2023/12/18 12:53:43;;;;;;;3.42;1.58;;;15.20;38.00;;;;;;5073351;28;20032;-74
2023/12/18 12:56:10;;;;;;;2.63;1.45;;;15.50;36.50;;;;;;5072966;28;20052;-72